TAF and METAR

Decoding for American and Canadian METARs and TAFs is not fully implemented.

Could not understand the following METAR

PASY 191458Z AUTO 21009KT 7SM FEW019 BKN043 00/M03 A2987 RMK AO2 UPB47E51 SLPNO T10021033 PNO FZRANO $

TAF for Eareckson Air Station

TAF PASY 191400Z 1914/2020 23012KT 9999 SCT015 OVC030 620307 QNH2982INS BECMG 2007/2008 16015G25KT 8000 -SHSN SCT010 OVC025 620258 QNH2976INS TX01/2002Z TNM02/1916Z
Report created 19. mar 15:00

between 19. mar 15:00 - 20. mar 21:00

wind 12 knots from SW (230°) visibility > 10km scattered clouds (~50% cover) at 1500 feet overcast at 3000 feet
Eareckson Air Station in United States of America at 31m

Latest 5 airports